Flight EZE57Q

  • Submitted By: Dave Hardy
  • Departure Airport: Leeds Bradford (EGNM)
  • Arrival Airport: Aberdeen / Dyce (EGPD)
  • Aircraft: JS41 (G-MAJA)
  • Flight Time: 00.48
  • Date Submitted: 03/23/2009
  • Status: Accepted
Flight Details
Gross Revenue:
(15 load / £ 0.00 per unit
£ 0.00
Fuel Cost:
(1529 fuel used @ 0 / unit)
£ 0.00

Flight Details

  • VATAWARE Link: -

Additional Log Information:

View Log

[2009/03/23 10:07:00]
Flight IATA:EZE57Q
Pilot Number:EZE0001
Company ICAO:EZE
Aircraft Type:JS41
PAX:15
Aircraft Registration:JS41
Departing Airport: EGNM
Destination Airport: EGPD
Online: VATSIM
Route:NELSA..GASKO.P18.NATEB..ALASO..BALID
Flight Level:20000
10:07 Zero fuel Weight: 17980 Lbs, Fuel Weight: 5798 Lbs
10:07 VATSIM:EGNM 231020Z 29030G42KT 9999 7000S VCSH SCT012 08/05 Q1010
10:07 VATSIM:EGPD 231020Z 30021G33KT 9999 -SHRA SCT033 06/00 Q1005 TEMPO 4000 SHRASN BKN014CB
10:33 Com1 Freq=120.30
10:33 VR= 144 Knots
10:33 V2= 144 Knots
10:33 Take-off
10:33 Take off Weight: 23693 Lbs
10:33 Wind: 296 @ 038 Knots Heading: 314
10:33 POS N53 52 09 W001 39 52
10:33 N11 36 N12 36
10:33 Gear Up: 149 Knots
10:33 Flaps: at 149 Knots
10:35 Com1 Freq=122.30
10:35 Com1 Freq=122.42
10:35 Com1 Freq=122.70
10:35 Com1 Freq=122.80
10:35 Flaps: at 153 Knots
10:42 TOC
10:42 Fuel Weight: 5288 Lb
10:48 Wind:296@101 Knots Heading: 352 Ground Speed: 266 Knots Altitude 19911 ft
11:03 Wind:296@098 Knots Heading: 333 Ground Speed: 238 Knots Altitude 19858 ft
11:07 TOD
11:07 Fuel Weight: 4467 Lb
11:14 Flaps: at 242 Knots
11:16 Gear Down: 145 Knots
11:16 Flaps: at 139 Knots
11:18 Wind:317@019 Knots Heading: 335 Ground Speed: 141 Knots Altitude 1486 ft
11:19 TouchDown:Rate -284 ft/min Speed: 135 Knots
11:19 VATSIM:EGPD 231150Z 30025G36KT 9999 VCSH FEW030 SCT033 07/00 Q1005 TEMPO 4000 SHRASN BKN014CB
11:19 Land
11:19 Wind:317@019 Knots
11:19 Heading: 339
11:19 Flight Duration: 00:46
11:19 Landing Weight: 22267 Lbs
11:19 POS N57 12 16 W002 12 00
11:21 Parking brakes on
11:21 Block to Block Duration: 00:48
11:21 Final Fuel: 4268 Lbls
11:21 Spent Fuel: 1529 Lbls
11:21 Flight Length: 171 NM
11:21 TOD Land Length: 36 NM

Route Map